Time;durP1;ratioP1;P1;durP2;ratioP2;P2;SDS_P1;SDS_P2;PMS_P1;PMS_P2;Temp;Humidity;BMP_temperature;BMP_pressure;BME280_temperature;BME280_humidity;BME280_pressure;Samples;Min_cycle;Max_cycle;Signal;HPM_P1;HPM_P2
2022/06/07 00:03:34;;;;;;;4.63;2.53;;;19.50;88.40;;;;;;21078405;28;20228;-64
2022/06/07 00:13:37;;;;;;;3.80;2.30;;;19.40;88.60;;;;;;21077818;28;20225;-67
2022/06/07 00:23:39;;;;;;;3.00;2.20;;;19.30;88.60;;;;;;21069381;28;20238;-62
2022/06/07 00:33:41;;;;;;;3.13;1.80;;;19.30;88.70;;;;;;21077254;28;20617;-64
2022/06/07 00:44:21;;;;;;;2.80;1.60;;;19.20;87.90;;;;;;21078679;28;20235;-64
2022/06/07 00:54:25;;;;;;;5.23;1.60;;;19.30;85.30;;;;;;21092654;28;20361;-63
2022/06/07 01:04:27;;;;;;;6.30;1.77;;;19.30;83.50;;;;;;21091055;28;20302;-63
2022/06/07 01:14:29;;;;;;;3.50;1.40;;;19.40;82.70;;;;;;21090775;28;20286;-64
2022/06/07 01:24:30;;;;;;;1.87;1.77;;;19.40;81.40;;;;;;21089948;28;20239;-63
2022/06/07 01:34:33;;;;;;;3.50;1.43;;;19.40;80.80;;;;;;21089020;28;20211;-66
2022/06/07 01:44:40;;;;;;;2.93;1.27;;;19.40;79.80;;;;;;21088238;28;20239;-63
2022/06/07 01:54:42;;;;;;;2.07;1.30;;;19.40;79.10;;;;;;21086743;28;20207;-62
2022/06/07 02:04:45;;;;;;;3.00;1.13;;;19.40;79.40;;;;;;21086631;28;20243;-63
2022/06/07 02:14:47;;;;;;;6.63;1.60;;;19.30;79.80;;;;;;21085868;28;20204;-64
2022/06/07 02:24:48;;;;;;;1.80;1.60;;;19.20;79.90;;;;;;21084841;28;20236;-65
2022/06/07 02:34:53;;;;;;;3.23;1.50;;;19.10;80.70;;;;;;21084723;28;20670;-64
2022/06/07 02:44:57;;;;;;;1.60;1.50;;;19.00;82.50;;;;;;21084344;28;20232;-64
2022/06/07 02:54:59;;;;;;;6.20;1.80;;;18.80;84.00;;;;;;21082698;28;20210;-62
2022/06/07 03:05:00;;;;;;;3.73;1.60;;;18.70;85.50;;;;;;21084121;28;20575;-64
2022/06/07 03:15:02;;;;;;;2.33;1.90;;;18.60;86.50;;;;;;21081346;28;20213;-62
2022/06/07 03:25:05;;;;;;;2.07;1.70;;;18.40;88.00;;;;;;21080007;28;20234;-63
2022/06/07 03:35:07;;;;;;;2.67;1.80;;;18.40;89.20;;;;;;21080326;28;20209;-70
2022/06/07 03:45:09;;;;;;;4.10;1.80;;;18.30;89.90;;;;;;21079285;28;20249;-69
2022/06/07 03:55:11;;;;;;;4.27;1.83;;;18.30;89.90;;;;;;21078497;28;20210;-70
2022/06/07 04:05:13;;;;;;;3.47;2.10;;;18.20;90.00;;;;;;21078553;28;20245;-71
2022/06/07 04:15:14;;;;;;;3.23;1.23;;;18.20;90.40;;;;;;21077805;28;20220;-71
2022/06/07 04:25:16;;;;;;;2.20;1.70;;;18.20;88.70;;;;;;21090313;28;20237;-70
2022/06/07 04:35:18;;;;;;;2.47;1.43;;;18.30;87.30;;;;;;21093650;28;20564;-68
2022/06/07 04:45:20;;;;;;;3.20;1.37;;;18.30;86.70;;;;;;21091644;28;20242;-65
2022/06/07 04:55:22;;;;;;;1.80;1.30;;;18.40;86.40;;;;;;21091334;28;20699;-72
2022/06/07 05:05:24;;;;;;;2.00;1.40;;;18.60;85.90;;;;;;21091097;28;20241;-71
2022/06/07 05:15:25;;;;;;;2.40;1.40;;;18.70;85.40;;;;;;21089911;28;20204;-71
2022/06/07 05:25:27;;;;;;;1.90;1.30;;;18.80;85.10;;;;;;21088781;28;20261;-70
2022/06/07 05:35:29;;;;;;;1.67;1.50;;;18.90;84.70;;;;;;21087493;28;20208;-71
2022/06/07 05:45:31;;;;;;;4.60;1.43;;;18.90;84.60;;;;;;21068713;28;20234;-62
2022/06/07 05:55:33;;;;;;;1.90;1.40;;;19.00;84.70;;;;;;21086156;28;20208;-63
2022/06/07 06:05:34;;;;;;;2.50;1.40;;;18.90;84.60;;;;;;21101126;28;20321;-62
2022/06/07 06:15:36;;;;;;;2.07;1.40;;;19.00;85.10;;;;;;21084083;28;20613;-64
2022/06/07 06:25:41;;;;;;;1.40;1.30;;;19.00;85.10;;;;;;21082889;28;20237;-64
2022/06/07 06:35:51;;;;;;;1.67;1.20;;;19.10;85.00;;;;;;21082149;28;20571;-68
2022/06/07 06:45:52;;;;;;;5.97;1.80;;;19.10;85.10;;;;;;21081198;28;20281;-64
2022/06/07 06:55:55;;;;;;;2.53;1.43;;;19.10;85.20;;;;;;21080738;28;20593;-62
2022/06/07 07:05:57;;;;;;;3.40;1.33;;;19.10;85.80;;;;;;21079701;28;20242;-65
2022/06/07 07:15:59;;;;;;;2.53;1.60;;;19.30;85.50;;;;;;21078950;28;20210;-64
2022/06/07 07:26:07;;;;;;;4.53;1.70;;;19.50;85.10;;;;;;21078528;28;20342;-63
2022/06/07 07:36:10;;;;;;;6.77;2.33;;;19.70;84.30;;;;;;21078416;28;20216;-63
2022/06/07 07:46:12;;;;;;;2.97;1.80;;;19.80;83.70;;;;;;21077598;28;20254;-60
2022/06/07 07:56:15;;;;;;;2.57;1.40;;;20.00;83.10;;;;;;21076731;28;20731;-63
2022/06/07 08:06:19;;;;;;;2.23;1.40;;;20.10;81.70;;;;;;21058932;28;20638;-68
2022/06/07 08:16:21;;;;;;;3.83;1.50;;;20.40;80.80;;;;;;21076061;28;20661;-64
2022/06/07 08:26:26;;;;;;;1.83;1.20;;;20.60;79.30;;;;;;21075883;28;20681;-65
2022/06/07 08:46:51;;;;;;;7.10;1.40;;;21.10;75.10;;;;;;21078677;28;20234;-70
2022/06/07 08:56:54;;;;;;;13.97;1.43;;;21.10;73.40;;;;;;21075870;28;20210;-64
2022/06/07 09:07:03;;;;;;;6.40;1.23;;;21.20;70.10;;;;;;21079414;28;20591;-65
2022/06/07 09:17:29;;;;;;;4.63;1.40;;;21.30;69.90;;;;;;21089410;28;20305;-63
2022/06/07 09:27:32;;;;;;;4.80;2.80;;;21.60;69.10;;;;;;21088798;28;20245;-68
2022/06/07 09:37:45;;;;;;;3.03;1.70;;;21.70;68.70;;;;;;21088093;28;20621;-63
2022/06/07 09:47:47;;;;;;;3.27;1.50;;;21.60;66.40;;;;;;21086475;28;20242;-61
2022/06/07 09:58:04;;;;;;;1.27;1.10;;;21.60;65.30;;;;;;21068042;28;20236;-62
2022/06/07 10:08:24;;;;;;;1.73;1.00;;;21.60;65.10;;;;;;21085541;28;20321;-66
2022/06/07 10:18:38;;;;;;;2.57;1.17;;;21.80;64.50;;;;;;21084240;28;20210;-62
2022/06/07 10:28:52;;;;;;;2.30;1.00;;;21.80;63.10;;;;;;21083778;28;20728;-67
2022/06/07 10:39:13;;;;;;;4.47;1.10;;;21.90;60.80;;;;;;21083284;28;20210;-62
2022/06/07 10:49:28;;;;;;;1.33;0.90;;;22.00;58.90;;;;;;21082558;28;20234;-63
2022/06/07 10:59:31;;;;;;;1.03;0.87;;;21.80;57.80;;;;;;21080843;28;20680;-62
2022/06/07 11:09:41;;;;;;;2.97;1.30;;;21.90;57.80;;;;;;21081388;28;20233;-63
2022/06/07 11:19:43;;;;;;;2.80;0.90;;;22.00;57.70;;;;;;21080766;28;20288;-63
2022/06/07 11:29:47;;;;;;;2.97;1.10;;;22.10;58.20;;;;;;21060854;28;20680;-68
2022/06/07 11:39:55;;;;;;;2.30;1.00;;;22.30;58.50;;;;;;21078089;28;20206;-64
2022/06/07 11:50:01;;;;;;;2.93;1.20;;;22.30;58.30;;;;;;21078395;28;20245;-66
2022/06/07 12:00:19;;;;;;;1.90;0.97;;;22.40;57.90;;;;;;21077171;28;20205;-64
2022/06/07 12:10:26;;;;;;;4.67;1.20;;;22.80;56.50;;;;;;21075233;28;20226;-64
2022/06/07 12:20:36;;;;;;;2.60;1.10;;;22.90;55.50;;;;;;21076742;28;20212;-63
2022/06/07 12:30:38;;;;;;;2.10;1.20;;;22.90;55.40;;;;;;21075488;28;20234;-62
2022/06/07 12:40:59;;;;;;;1.53;1.10;;;22.80;56.00;;;;;;21078994;28;20209;-63
2022/06/07 12:51:01;;;;;;;3.50;1.73;;;22.80;56.00;;;;;;21091831;28;20240;-62
2022/06/07 13:01:03;;;;;;;2.43;1.10;;;23.00;55.50;;;;;;21093187;28;20270;-66
2022/06/07 13:11:12;;;;;;;2.97;1.33;;;23.20;56.00;;;;;;21090063;28;20668;-68
2022/06/07 13:21:19;;;;;;;3.87;1.20;;;23.30;56.40;;;;;;21089342;28;20717;-63
2022/06/07 13:31:49;;;;;;;1.57;1.40;;;23.20;56.70;;;;;;21070713;28;20256;-65
2022/06/07 13:42:13;;;;;;;5.33;1.60;;;23.00;56.80;;;;;;21095160;28;20228;-63
2022/06/07 14:02:47;;;;;;;2.57;1.00;;;22.70;57.60;;;;;;21078397;28;20598;-67
2022/06/07 14:12:49;;;;;;;2.33;1.03;;;22.80;57.80;;;;;;21084743;28;20697;-70
2022/06/07 14:22:53;;;;;;;4.40;2.03;;;22.90;58.00;;;;;;21067132;28;20206;-64
2022/06/07 14:32:57;;;;;;;2.57;1.20;;;23.00;58.20;;;;;;21084673;28;20246;-64
2022/06/07 14:42:59;;;;;;;1.97;1.20;;;23.40;57.80;;;;;;21083546;28;20206;-72
2022/06/07 14:53:01;;;;;;;3.40;1.30;;;23.60;57.70;;;;;;21064331;28;20576;-63
2022/06/07 15:03:05;;;;;;;1.70;1.17;;;24.10;57.50;;;;;;21081823;28;20219;-71
2022/06/07 15:13:28;;;;;;;5.53;2.60;;;23.90;58.30;;;;;;21081058;28;20266;-71
2022/06/07 15:23:30;;;;;;;3.00;1.53;;;24.00;57.70;;;;;;21078554;28;20394;-66
2022/06/07 15:33:32;;;;;;;2.13;1.30;;;23.80;57.80;;;;;;21080411;28;20233;-67
2022/06/07 15:43:33;;;;;;;2.20;1.70;;;23.70;57.50;;;;;;21079163;28;20208;-77
2022/06/07 15:53:35;;;;;;;4.80;1.70;;;23.70;57.90;;;;;;21061101;28;20230;-75
2022/06/07 16:03:38;;;;;;;3.47;1.70;;;23.70;58.10;;;;;;21078890;28;20198;-73
2022/06/07 16:13:40;;;;;;;1.83;1.33;;;23.70;59.00;;;;;;21077924;28;20244;-72
2022/06/07 16:23:43;;;;;;;2.67;1.30;;;23.60;58.80;;;;;;21094192;28;20202;-75
2022/06/07 16:33:48;;;;;;;1.40;1.17;;;23.60;58.90;;;;;;21094778;28;20619;-68
2022/06/07 16:44:04;;;;;;;1.80;1.50;;;23.40;59.00;;;;;;21093470;28;20289;-71
2022/06/07 16:54:06;;;;;;;6.73;1.40;;;23.50;59.00;;;;;;21092614;28;20741;-71
2022/06/07 17:04:10;;;;;;;2.80;1.33;;;23.50;59.10;;;;;;21092371;28;20241;-64
2022/06/07 17:14:13;;;;;;;3.70;1.40;;;23.40;59.60;;;;;;21090999;28;20237;-66
2022/06/07 17:24:15;;;;;;;5.50;1.10;;;23.50;59.70;;;;;;21088947;28;20731;-66
2022/06/07 17:34:17;;;;;;;3.47;1.43;;;23.70;59.30;;;;;;21085554;28;20235;-67
2022/06/07 17:44:19;;;;;;;6.00;1.40;;;23.60;59.50;;;;;;20998224;28;20655;-65
2022/06/07 17:54:21;;;;;;;3.87;1.30;;;23.60;60.00;;;;;;21004777;28;20235;-66
2022/06/07 18:04:23;;;;;;;2.43;1.80;;;23.20;61.60;;;;;;21003908;28;20208;-70
2022/06/07 18:14:24;;;;;;;3.67;1.50;;;22.90;63.20;;;;;;21002618;28;20542;-67
2022/06/07 18:24:28;;;;;;;1.60;1.10;;;22.70;64.20;;;;;;21009566;28;20247;-65
2022/06/07 18:34:31;;;;;;;6.00;1.20;;;22.50;65.50;;;;;;21083685;28;20233;-68
2022/06/07 18:44:32;;;;;;;8.93;1.30;;;22.30;66.40;;;;;;21085069;28;20313;-69
2022/06/07 18:54:34;;;;;;;9.30;1.00;;;21.90;68.90;;;;;;21002504;28;20276;-68
2022/06/07 19:04:36;;;;;;;2.57;1.07;;;21.40;71.30;;;;;;21026493;28;20210;-68
2022/06/07 19:14:38;;;;;;;1.83;0.90;;;21.00;74.60;;;;;;21062395;28;20244;-68
2022/06/07 19:24:40;;;;;;;3.73;0.90;;;20.60;77.00;;;;;;21079700;28;20243;-73
2022/06/07 19:34:42;;;;;;;1.70;0.90;;;20.40;78.90;;;;;;21078060;28;20240;-68
2022/06/07 19:44:44;;;;;;;4.90;1.80;;;20.30;80.40;;;;;;21076218;28;20223;-68
2022/06/07 19:54:46;;;;;;;3.20;2.10;;;19.90;82.30;;;;;;21076659;28;20206;-67
2022/06/07 20:04:48;;;;;;;1.67;1.10;;;19.80;83.70;;;;;;21076212;28;20209;-66
2022/06/07 20:14:50;;;;;;;2.13;1.30;;;19.80;84.80;;;;;;21075493;28;20211;-69
2022/06/07 20:24:51;;;;;;;1.27;1.17;;;19.70;85.70;;;;;;21074629;28;20241;-69
2022/06/07 20:34:53;;;;;;;2.20;1.07;;;19.60;87.10;;;;;;21074894;28;20209;-66
2022/06/07 20:44:55;;;;;;;4.37;1.10;;;19.60;88.00;;;;;;21074469;28;20201;-66
2022/06/07 20:54:56;;;;;;;2.00;1.00;;;19.50;88.30;;;;;;21073423;28;20214;-64
2022/06/07 21:04:58;;;;;;;2.80;1.20;;;19.50;89.00;;;;;;21082011;28;20687;-64
2022/06/07 21:15:00;;;;;;;2.70;1.20;;;19.50;90.00;;;;;;21087440;28;20217;-64
2022/06/07 21:25:03;;;;;;;1.57;1.07;;;19.50;89.60;;;;;;21084950;28;20252;-64
2022/06/07 21:35:06;;;;;;;1.57;1.00;;;19.50;89.60;;;;;;21086810;28;20295;-70
2022/06/07 21:45:09;;;;;;;1.17;0.97;;;19.50;89.80;;;;;;21085239;28;20217;-69
2022/06/07 21:55:12;;;;;;;1.43;1.00;;;19.30;90.10;;;;;;21088340;28;20208;-64
2022/06/07 22:05:15;;;;;;;1.90;0.93;;;19.20;90.50;;;;;;21087587;28;20212;-67
2022/06/07 22:15:26;;;;;;;1.13;0.90;;;19.30;90.80;;;;;;21085640;28;20218;-67
2022/06/07 22:25:28;;;;;;;1.13;1.03;;;19.30;91.00;;;;;;21085517;28;20237;-67
2022/06/07 22:35:30;;;;;;;3.40;1.10;;;19.30;91.30;;;;;;21085029;28;20203;-64
2022/06/07 22:45:32;;;;;;;1.30;1.00;;;19.30;91.60;;;;;;21084022;28;20254;-67
2022/06/07 22:55:42;;;;;;;3.40;1.20;;;19.30;91.80;;;;;;21084122;28;20207;-64
2022/06/07 23:05:44;;;;;;;2.13;1.47;;;19.30;92.10;;;;;;21082866;28;20327;-65
2022/06/07 23:26:06;;;;;;;2.70;1.80;;;19.10;92.70;;;;;;21080037;28;20235;-64
2022/06/07 23:36:09;;;;;;;2.70;1.70;;;18.90;93.00;;;;;;21080655;28;20202;-65
2022/06/07 23:46:13;;;;;;;1.87;1.57;;;18.80;93.40;;;;;;21083923;28;20231;-64
2022/06/07 23:56:16;;;;;;;3.73;1.73;;;18.80;93.70;;;;;;21080185;28;20203;-64
